Time;durP1;ratioP1;P1;durP2;ratioP2;P2;SDS_P1;SDS_P2;PMS_P1;PMS_P2;Temp;Humidity;BMP_temperature;BMP_pressure;BME280_temperature;BME280_humidity;BME280_pressure;Samples;Min_cycle;Max_cycle;Signal;HPM_P1;HPM_P2
2022/08/03 00:00:28;;;;;;;6.40;5.60;;;;;;;20.44;66.29;100632.56;105938;1274;24327;-77
2022/08/03 00:02:55;;;;;;;8.50;5.60;;;;;;;20.39;66.51;100630.27;105863;1275;22525;-77
2022/08/03 00:05:22;;;;;;;7.60;5.40;;;;;;;20.35;66.63;100633.36;106021;1274;23356;-76
2022/08/03 00:07:49;;;;;;;8.40;5.70;;;;;;;20.31;66.67;100632.27;105508;1278;24236;-79
2022/08/03 00:10:16;;;;;;;6.30;5.70;;;;;;;20.24;66.81;100627.36;105856;1278;22663;-74
2022/08/03 00:12:43;;;;;;;8.70;5.90;;;;;;;20.20;67.11;100625.24;105695;1278;22569;-79
2022/08/03 00:15:10;;;;;;;10.10;5.50;;;;;;;20.17;67.09;100627.70;105748;1278;22796;-78
2022/08/03 00:17:43;;;;;;;5.50;5.00;;;;;;;20.16;67.20;100628.48;107276;1278;24214;-78
2022/08/03 00:20:22;;;;;;;6.00;5.00;;;;;;;20.16;67.33;100628.29;106417;1277;25980;-79
2022/08/03 00:22:50;;;;;;;8.10;5.80;;;;;;;20.17;67.37;100623.80;105809;1277;25464;-79
2022/08/03 00:25:18;;;;;;;8.00;5.60;;;;;;;20.17;67.50;100632.73;105242;1282;22553;-79
2022/08/03 00:27:45;;;;;;;7.10;6.10;;;;;;;20.15;67.54;100630.47;105322;1281;25416;-75
2022/08/03 00:30:14;;;;;;;9.00;6.00;;;;;;;20.13;67.59;100635.41;105040;1284;22536;-76
2022/08/03 00:32:43;;;;;;;9.40;6.00;;;;;;;20.10;67.58;100630.92;105108;1284;25377;-73
2022/08/03 00:35:11;;;;;;;6.60;5.90;;;;;;;20.06;67.81;100629.30;105044;1284;25544;-77
2022/08/03 00:37:58;;;;;;;9.80;5.60;;;;;;;19.99;67.85;100632.04;104920;1284;23107;-80
2022/08/03 00:40:26;;;;;;;7.10;5.00;;;;;;;19.96;67.93;100631.48;104960;1284;23045;-76
2022/08/03 00:42:55;;;;;;;7.20;5.20;;;;;;;19.94;68.05;100628.86;104845;1279;24281;-74
2022/08/03 00:45:25;;;;;;;5.80;5.20;;;;;;;19.95;68.07;100633.48;104863;1284;25286;-76
2022/08/03 00:47:53;;;;;;;6.00;5.40;;;;;;;19.96;68.00;100635.40;105136;1279;24391;-76
2022/08/03 00:50:23;;;;;;;8.60;5.80;;;;;;;19.95;68.16;100637.41;105294;1283;26595;-78
2022/08/03 00:52:56;;;;;;;8.10;5.50;;;;;;;19.92;68.07;100634.50;105324;1284;22541;-76
2022/08/03 00:55:24;;;;;;;9.10;5.90;;;;;;;19.88;68.34;100636.29;105245;1284;25263;-76
2022/08/03 00:57:52;;;;;;;6.50;5.70;;;;;;;19.85;68.38;100635.19;105382;1282;25181;-77
2022/08/03 01:00:22;;;;;;;8.30;5.30;;;;;;;19.82;68.42;100638.87;105376;1284;25253;-77
2022/08/03 01:02:50;;;;;;;6.90;5.20;;;;;;;19.81;68.58;100640.88;105331;1283;25245;-78
2022/08/03 01:05:18;;;;;;;9.30;6.10;;;;;;;19.83;68.63;100638.48;105945;1277;24564;-77
2022/08/03 01:08:03;;;;;;;7.80;5.40;;;;;;;19.85;68.66;100638.39;106494;1277;22638;-77
2022/08/03 01:10:38;;;;;;;9.60;5.90;;;;;;;19.85;68.64;100638.21;106910;1273;24102;-75
2022/08/03 01:13:46;;;;;;;12.70;5.90;;;;;;;19.84;68.69;100635.73;107013;1273;22742;-73
2022/08/03 01:16:44;;;;;;;;;;;;;;;19.78;68.79;100637.42;107063;1274;24245;-75
2022/08/03 01:19:20;;;;;;;13.20;6.00;;;;;;;19.74;68.87;100639.91;107007;1273;25584;-74
2022/08/03 01:21:58;;;;;;;8.40;5.70;;;;;;;19.70;68.96;100640.30;106658;1274;22486;-79
2022/08/03 01:24:58;;;;;;;11.30;5.10;;;;;;;19.66;69.19;100637.80;106572;1273;25255;-78
2022/08/03 01:27:55;;;;;;;7.90;5.40;;;;;;;19.65;69.18;100642.27;106117;1275;25488;-76
2022/08/03 01:30:32;;;;;;;9.70;6.10;;;;;;;19.60;69.31;100639.27;106167;1273;22665;-79
2022/08/03 01:33:08;;;;;;;12.10;6.30;;;;;;;19.58;69.47;100640.45;106144;1273;22535;-79
2022/08/03 01:36:04;;;;;;;8.70;5.80;;;;;;;19.59;69.53;100641.48;105917;1275;24238;-73
2022/08/03 01:38:38;;;;;;;8.40;5.90;;;;;;;19.59;69.64;100635.40;106174;1273;24258;-75
2022/08/03 01:41:11;;;;;;;10.70;6.30;;;;;;;19.55;69.60;100633.25;106136;1273;24226;-78
2022/08/03 01:43:41;;;;;;;10.40;5.90;;;;;;;19.53;69.65;100639.92;106031;1273;24699;-76
2022/08/03 01:46:31;;;;;;;9.70;5.50;;;;;;;19.53;69.71;100638.31;106078;1273;24395;-78
2022/08/03 01:48:59;;;;;;;9.70;5.70;;;;;;;19.52;69.82;100633.88;105680;1279;22599;-78
2022/08/03 01:51:38;;;;;;;9.30;6.30;;;;;;;19.48;69.83;100629.94;105638;1279;22620;-77
2022/08/03 01:54:27;;;;;;;8.40;6.10;;;;;;;19.44;69.91;100634.60;105604;1279;22557;-76
2022/08/03 01:56:57;;;;;;;14.60;6.50;;;;;;;19.41;70.06;100630.45;105675;1279;22536;-82
2022/08/03 01:59:25;;;;;;;11.20;6.60;;;;;;;19.40;69.98;100629.75;105723;1279;22547;-81
2022/08/03 02:01:53;;;;;;;9.10;5.70;;;;;;;19.37;70.04;100624.16;105582;1281;25796;-81
2022/08/03 02:04:42;;;;;;;7.50;5.70;;;;;;;19.37;70.08;100619.71;105588;1279;24265;-81
2022/08/03 02:07:10;;;;;;;9.10;5.60;;;;;;;19.34;70.11;100615.70;105699;1275;25631;-81
2022/08/03 02:09:40;;;;;;;8.90;5.90;;;;;;;19.37;70.26;100615.05;105822;1274;24257;-77
2022/08/03 02:12:09;;;;;;;11.70;6.40;;;;;;;19.39;70.15;100613.04;106138;1275;22535;-80
2022/08/03 02:14:39;;;;;;;8.40;6.50;;;;;;;19.39;70.06;100616.04;106005;1276;22547;-80
2022/08/03 02:17:07;;;;;;;9.40;6.90;;;;;;;19.39;70.02;100617.67;106143;1274;22723;-81
2022/08/03 02:19:35;;;;;;;8.00;6.60;;;;;;;19.36;69.90;100613.70;108659;1274;22579;-89
2022/08/03 02:22:05;;;;;;;10.90;6.80;;;;;;;19.33;69.80;100608.65;105947;1276;22544;-83
2022/08/03 02:24:31;;;;;;;7.40;6.10;;;;;;;19.30;69.80;100611.24;105994;1276;22578;-79
2022/08/03 02:27:02;;;;;;;9.30;5.70;;;;;;;19.31;69.84;100614.08;105958;1274;25436;-84
2022/08/03 02:29:33;;;;;;;9.70;6.20;;;;;;;19.32;69.96;100613.30;106052;1274;25467;-81
2022/08/03 02:32:15;;;;;;;9.20;6.70;;;;;;;19.33;70.08;100616.84;106044;1274;22563;-88
2022/08/03 02:34:46;;;;;;;12.00;6.30;;;;;;;19.32;70.00;100619.58;106897;1274;22618;-84
2022/08/03 02:37:17;;;;;;;7.50;6.80;;;;;;;19.27;70.11;100621.00;107011;1275;22635;-86
2022/08/03 02:39:46;;;;;;;9.00;6.30;;;;;;;19.23;70.22;100619.79;106150;1274;25496;-84
2022/08/03 02:42:17;;;;;;;8.10;6.10;;;;;;;19.17;70.34;100619.27;106104;1275;25419;-86
2022/08/03 02:44:48;;;;;;;8.90;5.50;;;;;;;19.14;70.55;100622.10;106212;1276;22769;-83
2022/08/03 02:47:20;;;;;;;8.60;5.60;;;;;;;19.11;70.56;100623.63;106749;1275;25383;-84
2022/08/03 02:49:50;;;;;;;8.70;6.90;;;;;;;19.11;70.67;100618.65;106748;1274;22879;-83
2022/08/03 02:52:24;;;;;;;7.80;6.20;;;;;;;19.11;70.75;100625.04;106114;1274;22540;-84
2022/08/03 02:54:54;;;;;;;9.90;6.20;;;;;;;19.12;70.82;100626.11;105857;1275;25534;-85
2022/08/03 02:57:24;;;;;;;12.30;6.10;;;;;;;19.11;70.80;100623.83;106360;1274;23985;-93
2022/08/03 02:59:54;;;;;;;10.30;6.30;;;;;;;19.08;70.79;100621.05;107561;1275;23474;-90
2022/08/03 03:02:23;;;;;;;9.70;6.00;;;;;;;19.08;70.82;100625.36;106319;1275;24572;-90
2022/08/03 03:04:52;;;;;;;9.90;6.20;;;;;;;19.09;70.89;100628.01;107485;1274;23938;-85
2022/08/03 03:07:39;;;;;;;7.60;6.30;;;;;;;19.09;70.92;100626.94;106122;1275;23953;-85
2022/08/03 03:10:19;;;;;;;8.70;6.50;;;;;;;19.10;71.02;100628.52;105787;1279;24277;-84
2022/08/03 03:12:49;;;;;;;10.70;6.60;;;;;;;19.09;70.99;100628.36;106247;1279;22613;-83
2022/08/03 03:15:17;;;;;;;10.00;6.30;;;;;;;19.10;71.03;100630.83;106309;1279;25267;-80
2022/08/03 03:17:46;;;;;;;9.20;5.80;;;;;;;19.09;71.02;100630.30;105740;1279;23075;-81
2022/08/03 03:20:14;;;;;;;8.50;5.60;;;;;;;19.11;71.09;100634.19;105891;1279;23082;-83
2022/08/03 03:22:58;;;;;;;7.60;6.20;;;;;;;19.13;71.07;100636.60;105564;1282;22742;-82
2022/08/03 03:25:27;;;;;;;8.90;6.50;;;;;;;19.16;71.04;100637.37;105492;1282;25688;-78
2022/08/03 03:27:55;;;;;;;10.50;6.50;;;;;;;19.16;70.94;100635.56;105560;1279;22854;-79
2022/08/03 03:30:24;;;;;;;7.60;6.50;;;;;;;19.17;70.93;100638.20;105998;1279;24284;-81
2022/08/03 03:32:52;;;;;;;9.00;6.80;;;;;;;19.20;71.05;100636.67;105864;1279;24730;-81
2022/08/03 03:35:18;;;;;;;8.70;6.70;;;;;;;19.20;71.01;100634.50;105814;1279;25492;-82
2022/08/03 03:37:46;;;;;;;8.00;5.80;;;;;;;19.22;71.03;100636.77;105777;1279;22553;-77
2022/08/03 03:40:13;;;;;;;8.50;6.50;;;;;;;19.25;70.90;100636.66;105752;1275;22565;-86
2022/08/03 03:42:40;;;;;;;11.30;7.10;;;;;;;19.26;71.00;100633.73;105881;1276;25269;-79
2022/08/03 03:45:08;;;;;;;12.40;8.40;;;;;;;19.29;70.90;100636.09;106050;1275;25327;-81
2022/08/03 03:47:36;;;;;;;8.50;7.40;;;;;;;19.33;70.85;100637.04;105943;1276;22771;-79
2022/08/03 03:50:05;;;;;;;11.80;7.40;;;;;;;19.37;70.88;100638.82;105857;1276;25257;-76
2022/08/03 03:52:33;;;;;;;10.60;8.10;;;;;;;19.40;70.94;100639.95;105901;1279;25350;-81
2022/08/03 03:55:00;;;;;;;8.20;6.70;;;;;;;19.41;70.85;100640.23;105811;1278;24398;-85
2022/08/03 03:57:28;;;;;;;11.90;7.40;;;;;;;19.45;70.83;100637.78;107144;1281;25372;-87
2022/08/03 03:59:56;;;;;;;11.80;7.50;;;;;;;19.51;70.82;100636.79;108478;1278;22573;-85
2022/08/03 04:02:23;;;;;;;10.60;7.40;;;;;;;19.58;70.84;100639.36;107372;1277;22529;-83
2022/08/03 04:10:58;;;;;;;13.60;8.40;;;;;;;19.67;70.72;100644.69;105121;1281;22664;-80
2022/08/03 04:13:40;;;;;;;14.30;8.30;;;;;;;19.70;70.28;100646.34;105457;1281;22612;-82
2022/08/03 04:16:11;;;;;;;14.40;8.30;;;;;;;19.73;70.27;100648.19;105317;1281;22533;-81
2022/08/03 04:18:40;;;;;;;13.40;8.20;;;;;;;19.78;70.06;100650.11;105686;1281;25498;-85
2022/08/03 04:21:11;;;;;;;14.90;8.10;;;;;;;19.84;70.27;100648.08;106201;1281;22561;-74
2022/08/03 04:23:47;;;;;;;13.20;8.40;;;;;;;19.89;70.49;100652.33;105413;1281;25373;-85
2022/08/03 04:26:17;;;;;;;11.50;8.80;;;;;;;19.94;70.23;100653.00;105753;1276;24278;-85
2022/08/03 04:28:46;;;;;;;11.20;8.50;;;;;;;19.95;70.12;100650.79;105854;1276;24605;-80
2022/08/03 04:31:14;;;;;;;13.00;8.90;;;;;;;20.01;70.07;100660.91;106034;1276;24694;-83
2022/08/03 04:33:43;;;;;;;9.70;8.10;;;;;;;20.06;70.01;100664.66;105978;1275;22894;-83
2022/08/03 04:36:15;;;;;;;12.60;8.90;;;;;;;20.10;69.94;100669.52;105995;1276;22538;-83
2022/08/03 04:39:01;;;;;;;11.50;9.30;;;;;;;20.14;69.65;100671.31;105855;1275;25563;-82
2022/08/03 04:41:29;;;;;;;;;;;;;;;20.16;69.41;100672.08;105773;1275;25321;-83
2022/08/03 04:43:59;;;;;;;14.30;10.30;;;;;;;20.22;69.48;100675.06;106004;1275;25411;-82
2022/08/03 04:46:30;;;;;;;14.70;9.80;;;;;;;20.24;69.44;100671.55;106124;1276;22603;-84
2022/08/03 04:48:58;;;;;;;13.90;10.70;;;;;;;20.34;69.41;100673.48;105530;1281;25591;-81
2022/08/03 04:51:25;;;;;;;11.30;9.90;;;;;;;20.38;69.14;100679.16;105586;1281;22550;-89
2022/08/03 04:53:52;;;;;;;13.40;10.40;;;;;;;20.40;69.03;100676.56;105074;1285;24651;-90
2022/08/03 04:56:19;;;;;;;15.30;10.90;;;;;;;20.42;69.02;100680.73;105199;1284;25621;-82
2022/08/03 04:58:46;;;;;;;13.80;10.70;;;;;;;20.46;68.80;100678.97;105598;1284;24677;-82
2022/08/03 05:01:15;;;;;;;17.60;10.30;;;;;;;20.51;68.90;100680.73;105207;1287;22729;-82
2022/08/03 05:03:42;;;;;;;15.70;10.50;;;;;;;20.55;68.81;100680.17;105320;1284;22771;-84
2022/08/03 05:06:09;;;;;;;14.40;10.40;;;;;;;20.57;68.81;100679.37;104499;1290;22625;-86
2022/08/03 05:08:37;;;;;;;14.30;10.20;;;;;;;20.60;68.56;100680.31;105316;1284;22824;-84
2022/08/03 05:11:15;;;;;;;16.00;10.50;;;;;;;20.65;68.72;100684.72;105148;1282;25714;-85
2022/08/03 05:13:43;;;;;;;12.90;10.40;;;;;;;20.65;68.66;100685.98;105363;1281;25227;-85
2022/08/03 05:16:11;;;;;;;12.00;10.00;;;;;;;20.63;68.61;100688.58;105341;1281;24245;-85
2022/08/03 05:18:39;;;;;;;11.80;10.20;;;;;;;20.62;68.73;100687.89;105531;1281;25408;-87
2022/08/03 05:21:06;;;;;;;14.20;9.40;;;;;;;20.62;69.06;100691.46;105368;1281;22873;-82
2022/08/03 05:23:33;;;;;;;11.20;9.30;;;;;;;20.63;69.14;100691.59;106116;1278;22585;-81
2022/08/03 05:26:00;;;;;;;14.90;9.50;;;;;;;20.69;69.08;100693.84;106687;1274;22640;-83
2022/08/03 05:28:26;;;;;;;13.30;10.30;;;;;;;20.77;69.10;100693.10;106297;1274;22471;-83
2022/08/03 05:30:53;;;;;;;16.90;10.00;;;;;;;20.83;68.81;100696.77;106059;1276;25242;-82
2022/08/03 05:33:20;;;;;;;11.90;9.60;;;;;;;20.86;68.65;100700.05;106032;1274;22852;-84
2022/08/03 05:35:47;;;;;;;14.80;10.10;;;;;;;20.82;68.43;100697.75;105876;1276;25369;-83
2022/08/03 05:38:30;;;;;;;16.00;9.50;;;;;;;20.81;68.54;100697.95;106082;1274;24279;-85
2022/08/03 05:41:04;;;;;;;14.50;10.70;;;;;;;20.76;68.71;100702.08;106109;1274;22544;-83
2022/08/03 05:43:53;;;;;;;16.10;10.10;;;;;;;20.73;68.62;100703.89;106031;1275;25472;-84
2022/08/03 05:46:23;;;;;;;12.70;9.30;;;;;;;20.72;68.63;100706.95;106003;1275;26573;-83
2022/08/03 05:48:50;;;;;;;18.80;11.00;;;;;;;20.74;68.85;100708.13;106007;1275;22551;-83
2022/08/03 05:51:18;;;;;;;13.80;11.30;;;;;;;20.77;68.86;100707.62;105883;1278;25375;-83
2022/08/03 05:53:45;;;;;;;12.30;11.00;;;;;;;20.80;68.95;100708.90;106095;1274;25626;-82
2022/08/03 05:56:12;;;;;;;15.40;11.40;;;;;;;20.85;68.90;100714.57;106080;1274;22569;-82
2022/08/03 05:58:46;;;;;;;17.10;12.10;;;;;;;20.87;68.66;100713.42;106035;1276;25318;-83
2022/08/03 06:01:15;;;;;;;13.80;11.80;;;;;;;20.83;68.51;100711.98;105953;1275;25443;-82
2022/08/03 06:03:44;;;;;;;13.40;12.00;;;;;;;20.77;68.63;100712.77;106191;1274;25456;-82
2022/08/03 06:06:11;;;;;;;12.80;11.50;;;;;;;20.75;68.77;100715.39;106196;1275;25263;-82
2022/08/03 06:08:39;;;;;;;15.20;11.30;;;;;;;20.75;68.83;100719.35;106106;1275;22531;-83
2022/08/03 06:11:07;;;;;;;16.40;12.30;;;;;;;20.76;68.80;100720.16;106153;1275;25367;-89
2022/08/03 06:13:34;;;;;;;14.00;12.00;;;;;;;20.78;68.82;100719.55;106487;1276;22546;-81
2022/08/03 06:16:01;;;;;;;14.60;12.40;;;;;;;20.83;68.93;100721.10;106267;1275;25380;-89
2022/08/03 06:18:28;;;;;;;14.80;13.20;;;;;;;20.86;68.86;100722.05;106514;1274;22650;-85
2022/08/03 06:20:55;;;;;;;15.70;13.10;;;;;;;20.90;68.84;100723.30;106093;1276;23055;-85
2022/08/03 06:23:22;;;;;;;17.40;12.40;;;;;;;20.94;68.91;100724.95;105986;1276;25240;-86
2022/08/03 06:26:09;;;;;;;13.90;11.90;;;;;;;20.97;68.85;100720.66;105985;1276;22690;-85
2022/08/03 06:28:39;;;;;;;14.70;11.20;;;;;;;21.05;68.88;100722.98;105713;1274;22625;-84
2022/08/03 06:31:24;;;;;;;14.80;11.90;;;;;;;21.11;68.65;100726.98;106022;1276;25445;-84
2022/08/03 06:34:01;;;;;;;13.60;12.20;;;;;;;21.12;68.67;100731.77;106018;1274;22522;-84
2022/08/03 06:36:49;;;;;;;19.80;13.40;;;;;;;21.13;68.50;100731.38;106631;1276;22554;-85
2022/08/03 06:39:18;;;;;;;15.80;12.10;;;;;;;21.12;68.54;100729.44;105991;1275;22540;-84
2022/08/03 06:41:45;;;;;;;18.10;13.60;;;;;;;21.13;68.63;100727.23;105716;1276;369618;-84
2022/08/03 06:44:13;;;;;;;16.50;13.60;;;;;;;21.16;68.62;100728.73;105676;1278;24245;-84
2022/08/03 06:46:41;;;;;;;14.50;13.10;;;;;;;21.10;68.36;100729.53;105775;1278;22627;-83
2022/08/03 06:49:07;;;;;;;14.30;12.30;;;;;;;21.02;68.52;100730.26;106048;1276;22666;-85
2022/08/03 06:51:34;;;;;;;13.70;12.30;;;;;;;21.05;68.89;100730.16;105925;1276;22835;-84
2022/08/03 06:54:23;;;;;;;13.60;12.20;;;;;;;21.11;68.77;100729.30;105959;1276;25444;-84
2022/08/03 06:56:49;;;;;;;15.40;12.50;;;;;;;21.09;68.64;100730.85;105966;1274;23272;-84
2022/08/03 06:59:17;;;;;;;14.30;12.10;;;;;;;21.10;68.80;100732.92;105828;1273;22713;-84
2022/08/03 07:02:04;;;;;;;14.70;13.20;;;;;;;21.17;68.89;100731.90;106045;1273;22526;-85
2022/08/03 07:04:30;;;;;;;15.00;13.00;;;;;;;21.24;68.84;100731.02;106023;1274;22726;-83
2022/08/03 07:06:57;;;;;;;18.20;14.70;;;;;;;21.33;68.41;100730.80;106116;1273;22556;-84
2022/08/03 07:09:25;;;;;;;16.00;14.40;;;;;;;21.33;67.97;100733.46;105890;1273;22517;-83
2022/08/03 07:11:53;;;;;;;15.20;13.70;;;;;;;21.34;68.00;100736.48;106147;1273;25490;-84
2022/08/03 07:14:20;;;;;;;16.10;13.30;;;;;;;21.40;68.09;100739.20;106046;1274;25434;-85
2022/08/03 07:16:47;;;;;;;16.00;13.40;;;;;;;21.50;67.90;100736.59;106282;1273;24093;-85
2022/08/03 07:19:15;;;;;;;19.30;13.50;;;;;;;21.63;67.83;100734.70;106195;1273;22525;-84
2022/08/03 07:21:41;;;;;;;22.00;14.80;;;;;;;21.74;67.71;100735.93;106059;1273;22712;-84
2022/08/03 07:24:08;;;;;;;17.70;13.80;;;;;;;21.86;67.34;100732.34;106171;1273;22536;-85
2022/08/03 07:26:35;;;;;;;20.20;14.30;;;;;;;21.98;67.28;100729.02;106198;1273;23283;-84
2022/08/03 07:29:02;;;;;;;20.50;13.80;;;;;;;22.08;67.17;100726.69;106214;1273;22622;-86
2022/08/03 07:31:37;;;;;;;18.50;13.30;;;;;;;22.22;67.32;100730.64;106303;1273;22551;-86
2022/08/03 07:34:04;;;;;;;16.80;12.60;;;;;;;22.35;66.86;100734.45;106210;1273;22696;-82
2022/08/03 07:36:31;;;;;;;13.90;12.40;;;;;;;22.46;66.48;100732.42;106224;1273;24297;-86
2022/08/03 07:38:59;;;;;;;15.30;12.60;;;;;;;22.49;65.54;100734.77;106800;1273;22660;-85
2022/08/03 07:41:43;;;;;;;16.60;12.60;;;;;;;22.50;65.20;100733.48;106264;1273;22742;-84
2022/08/03 07:44:10;;;;;;;13.40;12.10;;;;;;;22.52;64.86;100731.61;106086;1273;22541;-84
2022/08/03 07:46:37;;;;;;;16.90;12.60;;;;;;;22.51;64.51;100735.41;105532;1279;22844;-84
2022/08/03 07:49:04;;;;;;;17.70;11.30;;;;;;;22.54;64.78;100735.45;106035;1278;22843;-85
2022/08/03 07:51:31;;;;;;;15.60;11.20;;;;;;;22.61;64.56;100735.08;105954;1277;22535;-87
2022/08/03 07:53:59;;;;;;;17.70;11.00;;;;;;;22.68;64.10;100734.75;107009;1278;22650;-86
2022/08/03 07:56:27;;;;;;;13.90;11.10;;;;;;;22.72;64.02;100730.73;107078;1279;22718;-86
2022/08/03 07:58:54;;;;;;;11.80;9.10;;;;;;;22.81;63.96;100732.36;107355;1281;24354;-84
2022/08/03 08:01:21;;;;;;;12.90;8.40;;;;;;;22.92;62.58;100732.33;106817;1283;22635;-87
2022/08/03 08:03:49;;;;;;;8.80;7.90;;;;;;;23.04;62.14;100734.73;105601;1282;22718;-87
2022/08/03 08:06:19;;;;;;;10.30;8.20;;;;;;;23.14;61.72;100736.86;106095;1279;22540;-86
2022/08/03 08:08:47;;;;;;;9.10;7.30;;;;;;;23.25;61.20;100737.33;106337;1279;22570;-84
2022/08/03 08:11:13;;;;;;;7.00;6.20;;;;;;;23.36;60.44;100737.80;105817;1279;24234;-86
2022/08/03 08:13:40;;;;;;;7.30;6.50;;;;;;;23.47;60.35;100735.52;105936;1279;24309;-84
2022/08/03 08:16:07;;;;;;;9.00;5.90;;;;;;;23.65;60.21;100741.49;105918;1279;22569;-85
2022/08/03 08:18:34;;;;;;;7.50;5.60;;;;;;;23.79;59.16;100739.07;106392;1275;22534;-81
2022/08/03 08:21:02;;;;;;;5.50;4.80;;;;;;;23.90;58.65;100738.63;106594;1274;25327;-85
2022/08/03 08:23:29;;;;;;;8.30;5.50;;;;;;;23.97;57.39;100743.23;107394;1274;22547;-85
2022/08/03 08:26:09;;;;;;;6.00;4.70;;;;;;;24.06;57.24;100741.42;107856;1274;22584;-84
2022/08/03 08:28:36;;;;;;;9.20;4.40;;;;;;;24.13;56.68;100739.94;106972;1274;24135;-84
2022/08/03 08:31:02;;;;;;;9.30;4.60;;;;;;;24.28;56.71;100740.88;106999;1275;23414;-85
2022/08/03 08:33:30;;;;;;;10.70;6.50;;;;;;;24.43;55.89;100740.66;106813;1274;25223;-86
2022/08/03 08:36:17;;;;;;;11.80;5.60;;;;;;;24.54;55.34;100735.85;106699;1274;22525;-87
2022/08/03 08:38:44;;;;;;;10.70;5.50;;;;;;;24.71;55.34;100733.54;107341;1274;22528;-85
2022/08/03 08:41:12;;;;;;;17.70;7.00;;;;;;;24.85;53.78;100733.04;107146;1274;22659;-86
2022/08/03 08:43:41;;;;;;;11.10;6.00;;;;;;;24.88;53.52;100734.67;106808;1274;24371;-86
2022/08/03 08:46:11;;;;;;;9.60;3.90;;;;;;;24.96;52.75;100735.23;106448;1274;25251;-85
2022/08/03 08:48:50;;;;;;;10.00;3.70;;;;;;;25.08;52.33;100734.67;106436;1274;22553;-85
2022/08/03 08:51:20;;;;;;;5.10;3.30;;;;;;;25.18;51.53;100732.74;106861;1275;24165;-86
2022/08/03 08:53:51;;;;;;;17.50;5.60;;;;;;;25.23;50.70;100730.30;106078;1279;23964;-86
2022/08/03 08:56:21;;;;;;;7.30;5.10;;;;;;;25.31;50.91;100730.85;105892;1281;25395;-85
2022/08/03 08:58:52;;;;;;;7.70;4.30;;;;;;;25.45;51.18;100734.59;105523;1279;24257;-84
2022/08/03 09:01:19;;;;;;;13.30;5.40;;;;;;;25.56;50.77;100731.68;105664;1281;25267;-83
2022/08/03 09:03:47;;;;;;;11.00;5.20;;;;;;;25.73;50.67;100730.80;105487;1281;22565;-87
2022/08/03 09:06:14;;;;;;;8.90;4.20;;;;;;;25.87;50.37;100734.20;105447;1281;22564;-87
2022/08/03 09:08:42;;;;;;;5.50;3.80;;;;;;;25.98;49.99;100734.33;105769;1280;23159;-87
2022/08/03 09:11:08;;;;;;;7.10;4.50;;;;;;;26.09;50.44;100732.11;106001;1279;25115;-83
2022/08/03 09:13:38;;;;;;;8.90;4.20;;;;;;;26.21;50.19;100734.23;106547;1275;22553;-87
2022/08/03 09:16:09;;;;;;;6.20;4.20;;;;;;;26.24;48.98;100732.02;106705;1274;24234;-86
2022/08/03 09:18:37;;;;;;;7.10;3.40;;;;;;;26.20;49.08;100731.20;106600;1274;22547;-86
2022/08/03 09:21:25;;;;;;;8.10;3.90;;;;;;;26.22;49.25;100733.03;106349;1275;25312;-88
2022/08/03 09:24:04;;;;;;;6.50;3.20;;;;;;;26.37;49.25;100733.81;107201;1274;22529;-86
2022/08/03 09:26:38;;;;;;;5.60;3.40;;;;;;;26.46;48.21;100730.33;107656;1274;22550;-85
2022/08/03 09:29:09;;;;;;;5.60;3.60;;;;;;;26.59;48.84;100728.33;107639;1276;22539;-86
2022/08/03 09:31:45;;;;;;;3.90;3.20;;;;;;;26.73;48.50;100726.77;107448;1274;22602;-85
2022/08/03 09:34:15;;;;;;;4.40;3.10;;;;;;;26.89;48.49;100721.15;106298;1276;25371;-86
2022/08/03 09:36:49;;;;;;;4.10;3.20;;;;;;;27.07;48.01;100726.20;106113;1277;22828;-86
2022/08/03 09:39:19;;;;;;;3.20;2.80;;;;;;;27.26;48.33;100724.77;106199;1274;22538;-86
2022/08/03 09:42:17;;;;;;;4.80;2.70;;;;;;;27.48;47.49;100725.32;105985;1274;23808;-86
2022/08/03 09:44:50;;;;;;;2.90;2.50;;;;;;;27.54;47.11;100724.86;106070;1278;22559;-88
2022/08/03 09:47:32;;;;;;;3.20;2.70;;;;;;;27.43;46.85;100725.37;106236;1277;22567;-85
2022/08/03 09:50:08;;;;;;;5.00;3.00;;;;;;;27.25;47.10;100724.14;106040;1274;24298;-86
2022/08/03 09:52:39;;;;;;;5.70;3.00;;;;;;;27.03;46.67;100722.88;106164;1274;22559;-87
2022/08/03 09:55:19;;;;;;;2.60;2.40;;;;;;;26.92;47.12;100722.23;106145;1275;25381;-85
2022/08/03 09:58:09;;;;;;;4.10;2.30;;;;;;;27.01;45.89;100716.53;106343;1274;25367;-87
2022/08/03 10:00:59;;;;;;;3.60;2.80;;;;;;;27.16;46.31;100720.46;106562;1275;25288;-85
2022/08/03 10:03:28;;;;;;;2.70;2.50;;;;;;;27.41;45.42;100719.57;106206;1274;25763;-86
2022/08/03 10:05:55;;;;;;;3.30;2.60;;;;;;;27.54;44.50;100712.94;106255;1275;24239;-86
2022/08/03 10:08:25;;;;;;;3.80;2.70;;;;;;;27.47;44.02;100714.36;106132;1278;22544;-85
2022/08/03 10:10:53;;;;;;;3.40;2.60;;;;;;;27.51;44.34;100712.48;106124;1275;22544;-87
2022/08/03 10:13:22;;;;;;;2.80;2.40;;;;;;;27.52;43.78;100718.38;106179;1274;22677;-85
2022/08/03 10:15:49;;;;;;;4.10;2.80;;;;;;;27.54;44.15;100714.38;106115;1274;25454;-86
2022/08/03 10:18:36;;;;;;;2.50;2.10;;;;;;;27.75;44.13;100715.54;105912;1277;22541;-85
2022/08/03 10:21:07;;;;;;;2.50;2.30;;;;;;;27.88;43.64;100716.58;106080;1274;25517;-85
2022/08/03 10:23:36;;;;;;;3.00;2.50;;;;;;;27.98;42.94;100713.48;105953;1274;22557;-85
2022/08/03 10:26:07;;;;;;;18.70;3.40;;;;;;;28.15;43.14;100714.64;106240;1275;22699;-85
2022/08/03 10:28:38;;;;;;;4.10;2.80;;;;;;;28.35;43.15;100705.50;106228;1274;25611;-86
2022/08/03 10:31:12;;;;;;;2.90;2.10;;;;;;;28.40;43.15;100707.68;106133;1274;22553;-86
2022/08/03 10:33:48;;;;;;;6.50;2.50;;;;;;;28.58;43.56;100712.39;106257;1274;26564;-87
2022/08/03 10:36:26;;;;;;;4.70;2.40;;;;;;;28.86;42.75;100711.25;107266;1274;22924;-85
2022/08/03 10:38:55;;;;;;;8.10;2.60;;;;;;;29.01;42.26;100709.89;108100;1274;23931;-84
2022/08/03 10:41:30;;;;;;;2.80;2.30;;;;;;;29.22;41.84;100710.70;107686;1274;22544;-87
2022/08/03 10:44:09;;;;;;;4.30;2.30;;;;;;;29.27;41.13;100703.91;107547;1274;22544;-86
2022/08/03 10:46:40;;;;;;;3.60;2.40;;;;;;;29.23;40.06;100706.98;107253;1277;22671;-86
2022/08/03 10:49:15;;;;;;;2.90;2.20;;;;;;;29.20;39.57;100708.92;106253;1274;22856;-85
2022/08/03 10:52:00;;;;;;;2.30;2.10;;;;;;;29.24;39.41;100708.54;106479;1274;22569;-86
2022/08/03 10:54:34;;;;;;;3.10;1.80;;;;;;;29.43;39.70;100705.00;105902;1279;22574;-87
2022/08/03 10:59:57;;;;;;;2.10;1.90;;;;;;;29.74;38.28;100703.16;107276;1277;22709;-83
2022/08/03 11:03:02;;;;;;;2.40;2.20;;;;;;;29.71;38.36;100703.74;107911;1278;22531;-86
2022/08/03 11:05:32;;;;;;;2.60;2.20;;;;;;;29.61;38.40;100698.39;105150;1284;25346;-86
2022/08/03 11:08:24;;;;;;;2.40;2.00;;;;;;;29.66;38.36;100697.47;105052;1285;25463;-85
2022/08/03 11:11:13;;;;;;;4.70;2.80;;;;;;;29.75;38.03;100706.32;106896;1284;22944;-85
2022/08/03 11:13:56;;;;;;;3.50;2.70;;;;;;;29.66;37.65;100706.85;106437;1281;22557;-85
2022/08/03 11:16:26;;;;;;;2.70;2.50;;;;;;;29.74;37.87;100700.38;105935;1281;22604;-83
2022/08/03 11:19:00;;;;;;;3.10;2.30;;;;;;;29.88;37.67;100702.27;105515;1281;22569;-86
2022/08/03 11:21:49;;;;;;;4.60;2.60;;;;;;;29.78;37.81;100708.40;105940;1281;24328;-86
2022/08/03 11:24:35;;;;;;;3.10;2.50;;;;;;;29.55;37.68;100699.93;106325;1274;22649;-85
2022/08/03 11:30:06;;;;;;;2.80;2.20;;;;;;;29.33;38.04;100695.63;106255;1275;22548;-86
2022/08/03 11:32:36;;;;;;;5.10;2.50;;;;;;;29.67;38.23;100695.77;106457;1274;22487;-85
2022/08/03 11:35:14;;;;;;;3.10;2.40;;;;;;;29.95;38.24;100691.86;106448;1274;22563;-87
2022/08/03 11:37:56;;;;;;;4.90;2.40;;;;;;;30.21;37.76;100684.62;106362;1274;22644;-88
2022/08/03 11:40:45;;;;;;;2.60;2.20;;;;;;;30.40;37.52;100686.98;106384;1274;25390;-88
2022/08/03 11:43:26;;;;;;;3.90;2.30;;;;;;;30.50;36.69;100681.83;106428;1274;25256;-88
2022/08/03 11:46:04;;;;;;;3.70;2.40;;;;;;;30.59;36.37;100682.71;106305;1274;23869;-86